Time;durP1;ratioP1;P1;durP2;ratioP2;P2;SDS_P1;SDS_P2;PMS_P1;PMS_P2;Temp;Humidity;BMP_temperature;BMP_pressure;BME280_temperature;BME280_humidity;BME280_pressure;Samples;Min_cycle;Max_cycle;Signal;HPM_P1;HPM_P2
2022/01/26 00:00:20;;;;;;;46.37;28.10;;;;;;;0.66;100.00;101906.81;5005717;28;20617;-47
2022/01/26 00:05:49;;;;;;;42.90;25.87;;;;;;;0.65;100.00;101904.19;5003866;28;20203;-46
2022/01/26 00:08:14;;;;;;;44.40;25.93;;;;;;;0.67;100.00;101907.72;5002811;28;20207;-46
2022/01/26 00:10:40;;;;;;;45.90;28.13;;;;;;;0.68;100.00;101909.47;5005269;28;20204;-47
2022/01/26 00:13:05;;;;;;;43.93;27.53;;;;;;;0.68;100.00;101902.69;5005405;28;20196;-46
2022/01/26 00:15:31;;;;;;;44.83;27.80;;;;;;;0.68;100.00;101905.25;5001751;28;20186;-46
2022/01/26 00:17:57;;;;;;;44.20;28.37;;;;;;;0.69;100.00;101906.09;5001492;28;20520;-45
2022/01/26 00:20:28;;;;;;;41.90;27.47;;;;;;;0.70;100.00;101902.78;5003379;28;20287;-45
2022/01/26 00:23:10;;;;;;;43.70;27.83;;;;;;;0.71;100.00;101905.44;5003877;28;20227;-46
2022/01/26 00:41:05;;;;;;;36.77;23.30;;;;;;;0.72;100.00;101880.81;5004092;28;21613;-45
2022/01/26 00:43:32;;;;;;;40.10;25.33;;;;;;;0.73;100.00;101883.47;5007101;28;20557;-45
2022/01/26 00:45:59;;;;;;;40.10;25.27;;;;;;;0.73;100.00;101878.38;5003867;28;20199;-45
2022/01/26 00:48:26;;;;;;;42.90;25.97;;;;;;;0.71;100.00;101882.50;5004016;28;20243;-46
2022/01/26 00:50:53;;;;;;;41.13;25.37;;;;;;;0.70;100.00;101882.38;5000691;28;20248;-47
2022/01/26 00:53:24;;;;;;;39.67;25.70;;;;;;;0.68;100.00;101881.44;5002629;28;20715;-47
2022/01/26 00:55:50;;;;;;;40.30;25.77;;;;;;;0.67;100.00;101883.09;5002117;28;20270;-46
2022/01/26 00:58:15;;;;;;;36.90;24.17;;;;;;;0.68;100.00;101889.09;5005764;28;20319;-46
2022/01/26 01:00:41;;;;;;;40.53;25.07;;;;;;;0.66;100.00;101883.88;5006139;28;20617;-46
2022/01/26 01:03:06;;;;;;;36.67;24.33;;;;;;;0.65;100.00;101888.91;5005301;28;20231;-46
2022/01/26 01:05:37;;;;;;;38.17;24.20;;;;;;;0.64;100.00;101889.69;5007153;28;20227;-46
2022/01/26 01:08:08;;;;;;;38.97;24.60;;;;;;;0.63;100.00;101893.03;5001818;28;20216;-47
2022/01/26 01:10:33;;;;;;;35.67;23.50;;;;;;;0.62;100.00;101892.13;5005271;28;20739;-46
2022/01/26 01:13:00;;;;;;;35.80;23.67;;;;;;;0.66;100.00;101890.66;4998571;28;20240;-46
2022/01/26 01:15:28;;;;;;;39.50;25.33;;;;;;;0.65;100.00;101884.69;5006345;28;20275;-46
2022/01/26 01:18:04;;;;;;;33.27;23.10;;;;;;;0.66;100.00;101888.13;5007335;28;20196;-44
2022/01/26 01:30:58;;;;;;;46.60;27.60;;;;;;;0.69;100.00;101886.63;5001726;28;20221;-44
2022/01/26 01:33:31;;;;;;;51.20;30.67;;;;;;;0.66;100.00;101885.56;5001924;28;20181;-47
2022/01/26 01:35:59;;;;;;;50.63;29.73;;;;;;;0.63;100.00;101882.84;5008064;28;20660;-47
2022/01/26 01:38:27;;;;;;;47.23;28.83;;;;;;;0.58;100.00;101891.09;5009634;28;20212;-45
2022/01/26 01:40:53;;;;;;;45.20;27.67;;;;;;;0.55;100.00;101890.91;5009784;28;20196;-46
2022/01/26 01:43:22;;;;;;;44.23;27.47;;;;;;;0.56;100.00;101892.66;5009944;28;20324;-45
2022/01/26 01:45:50;;;;;;;47.20;28.50;;;;;;;0.56;100.00;101897.75;5016837;28;20244;-46
2022/01/26 01:48:23;;;;;;;45.47;27.97;;;;;;;0.56;100.00;101899.44;5016231;28;20253;-45
2022/01/26 01:50:51;;;;;;;45.40;27.93;;;;;;;0.54;100.00;101898.47;5004419;28;20224;-47
2022/01/26 01:53:19;;;;;;;45.13;26.57;;;;;;;0.53;100.00;101900.13;5005827;28;20203;-46
2022/01/26 01:55:48;;;;;;;45.03;26.77;;;;;;;0.54;100.00;101896.78;5010273;28;20197;-45
2022/01/26 01:58:15;;;;;;;47.77;27.23;;;;;;;0.56;100.00;101899.44;5012842;28;20248;-47
2022/01/26 02:00:41;;;;;;;45.57;26.83;;;;;;;0.57;100.00;101896.97;5003907;28;20187;-47
2022/01/26 02:03:06;;;;;;;46.33;27.47;;;;;;;0.59;100.00;101892.00;5006325;28;20310;-47
2022/01/26 02:05:32;;;;;;;48.07;28.97;;;;;;;0.60;100.00;101891.19;5006117;28;20655;-47
2022/01/26 02:07:59;;;;;;;46.47;28.50;;;;;;;0.58;100.00;101898.72;5007299;28;20244;-47
2022/01/26 02:10:25;;;;;;;47.77;29.53;;;;;;;0.58;100.00;101898.72;5004530;28;20739;-47
2022/01/26 02:13:00;;;;;;;53.33;29.53;;;;;;;0.58;100.00;101901.28;5020205;28;20635;-47
2022/01/26 02:15:33;;;;;;;48.97;30.50;;;;;;;0.57;100.00;101896.97;5007269;28;20531;-47
2022/01/26 02:55:35;;;;;;;43.77;25.83;;;;;;;0.54;100.00;101881.50;5004941;28;20177;-46
2022/01/26 03:05:49;;;;;;;44.33;26.83;;;;;;;0.51;100.00;101870.25;5008461;28;20608;-46
2022/01/26 03:08:14;;;;;;;42.53;25.70;;;;;;;0.48;100.00;101868.44;5003763;28;20207;-46
2022/01/26 03:10:54;;;;;;;37.60;23.93;;;;;;;0.48;100.00;101867.53;5004152;28;20546;-45
2022/01/26 03:13:25;;;;;;;43.30;25.30;;;;;;;0.49;100.00;101864.19;5007809;28;20183;-47
2022/01/26 03:15:55;;;;;;;41.77;26.30;;;;;;;0.49;100.00;101862.56;5006423;28;20491;-47
2022/01/26 03:21:08;;;;;;;35.97;22.33;;;;;;;0.52;100.00;101861.84;5003393;28;20202;-45
2022/01/26 03:34:18;;;;;;;38.40;22.93;;;;;;;0.57;100.00;101866.41;5008044;28;20196;-44
2022/01/26 03:36:51;;;;;;;34.43;21.13;;;;;;;0.59;100.00;101866.50;5006332;28;20208;-45
2022/01/26 03:39:19;;;;;;;37.57;22.27;;;;;;;0.63;100.00;101870.09;5003606;28;20180;-47
2022/01/26 03:44:30;;;;;;;37.90;22.33;;;;;;;0.60;100.00;101879.31;5001577;28;20207;-46
2022/01/26 03:46:55;;;;;;;39.17;23.53;;;;;;;0.60;100.00;101879.31;4999679;28;20212;-45
2022/01/26 03:49:21;;;;;;;43.70;24.97;;;;;;;0.61;100.00;101880.19;5000827;28;20280;-46
2022/01/26 03:51:46;;;;;;;43.60;25.67;;;;;;;0.62;100.00;101889.59;5005474;28;20191;-47
2022/01/26 03:54:13;;;;;;;39.40;23.47;;;;;;;0.58;100.00;101877.50;5003784;28;20226;-47
2022/01/26 03:56:39;;;;;;;43.90;25.47;;;;;;;0.56;100.00;101873.97;5003498;28;20631;-48
2022/01/26 03:59:06;;;;;;;41.10;23.47;;;;;;;0.55;100.00;101870.53;5005895;28;20699;-47
2022/01/26 04:01:32;;;;;;;36.43;21.90;;;;;;;0.55;100.00;101877.31;5004606;28;20245;-47
2022/01/26 04:03:57;;;;;;;40.17;23.63;;;;;;;0.55;100.00;101880.72;5006498;28;20180;-47
2022/01/26 04:06:24;;;;;;;40.03;23.87;;;;;;;0.54;100.00;101886.59;5002929;28;22081;-47
2022/01/26 04:08:49;;;;;;;38.73;23.80;;;;;;;0.53;100.00;101881.44;4998913;28;20189;-47
2022/01/26 04:13:50;;;;;;;34.87;22.13;;;;;;;0.47;100.00;101871.75;5004358;28;20610;-47
2022/01/26 04:16:16;;;;;;;35.63;20.87;;;;;;;0.48;100.00;101873.53;5003787;28;20220;-45
2022/01/26 04:18:42;;;;;;;33.87;20.40;;;;;;;0.49;100.00;101871.84;5005402;28;20234;-46
2022/01/26 04:26:47;;;;;;;34.30;20.33;;;;;;;0.54;100.00;101876.41;4996484;28;20293;-46
2022/01/26 04:29:23;;;;;;;30.70;18.83;;;;;;;0.55;100.00;101878.16;5004485;28;20210;-46
2022/01/26 04:31:49;;;;;;;31.03;19.60;;;;;;;0.57;100.00;101876.59;5000815;28;20258;-46
2022/01/26 04:34:15;;;;;;;30.43;19.50;;;;;;;0.58;100.00;101867.31;5002198;28;20331;-46
2022/01/26 04:36:47;;;;;;;30.67;18.70;;;;;;;0.59;100.00;101871.59;5000906;28;20200;-46
2022/01/26 04:39:18;;;;;;;30.37;19.67;;;;;;;0.60;100.00;101878.47;5012761;28;20675;-46
2022/01/26 04:41:57;;;;;;;30.50;19.47;;;;;;;0.60;100.00;101876.78;5011504;28;20198;-46
2022/01/26 04:44:26;;;;;;;30.63;18.60;;;;;;;0.62;100.00;101876.84;5004620;28;20184;-46
2022/01/26 04:46:52;;;;;;;26.37;17.97;;;;;;;0.63;100.00;101878.59;5000764;28;20214;-46
2022/01/26 04:49:18;;;;;;;28.07;17.73;;;;;;;0.65;100.00;101879.59;5004401;28;20204;-46
2022/01/26 04:51:44;;;;;;;28.83;18.60;;;;;;;0.65;100.00;101873.63;5002196;28;20199;-45
2022/01/26 04:54:10;;;;;;;30.47;20.10;;;;;;;0.67;100.00;101882.25;5003730;28;20248;-46
2022/01/26 04:56:35;;;;;;;30.43;19.87;;;;;;;0.67;100.00;101885.66;5001472;28;20280;-46
2022/01/26 04:59:01;;;;;;;26.07;18.00;;;;;;;0.68;100.00;101873.81;5001718;28;20177;-47
2022/01/26 05:01:26;;;;;;;33.97;21.23;;;;;;;0.66;100.00;101866.06;4998942;28;20215;-47
2022/01/26 05:03:51;;;;;;;33.67;21.97;;;;;;;0.65;100.00;101859.19;5006692;28;20246;-46
2022/01/26 05:06:17;;;;;;;30.17;21.67;;;;;;;0.64;100.00;101877.81;4999429;28;20189;-47
2022/01/26 05:08:42;;;;;;;30.87;21.37;;;;;;;0.63;100.00;101865.88;5005502;28;20226;-46
2022/01/26 05:11:11;;;;;;;29.60;20.23;;;;;;;0.65;100.00;101882.13;5004201;28;20190;-57
2022/01/26 05:13:36;;;;;;;31.07;19.80;;;;;;;0.65;100.00;101889.78;5000453;28;20196;-46
2022/01/26 05:16:05;;;;;;;32.23;21.30;;;;;;;0.65;100.00;101883.81;5000755;28;20588;-46
2022/01/26 05:18:30;;;;;;;36.53;25.57;;;;;;;0.64;100.00;101888.00;5004864;28;20295;-46
2022/01/26 05:20:56;;;;;;;39.70;28.37;;;;;;;0.59;100.00;101886.91;5008127;28;20200;-46
2022/01/26 05:23:22;;;;;;;36.53;26.87;;;;;;;0.55;100.00;101880.72;5007282;28;20184;-46
2022/01/26 05:25:47;;;;;;;38.87;27.13;;;;;;;0.54;100.00;101871.31;5005995;28;20198;-46
2022/01/26 05:28:13;;;;;;;44.70;30.67;;;;;;;0.54;100.00;101876.41;5008925;28;20645;-46
2022/01/26 05:30:38;;;;;;;41.77;29.63;;;;;;;0.52;100.00;101882.22;5009281;28;20517;-45
2022/01/26 05:33:04;;;;;;;43.40;29.60;;;;;;;0.51;100.00;101875.38;5010895;28;20707;-46
2022/01/26 05:35:30;;;;;;;41.03;26.93;;;;;;;0.51;100.00;101883.91;5007762;28;20222;-46
2022/01/26 05:37:55;;;;;;;40.43;26.93;;;;;;;0.51;100.00;101880.47;5019189;28;20573;-46
2022/01/26 05:40:22;;;;;;;42.47;26.53;;;;;;;0.52;100.00;101877.13;5011638;28;20181;-46
2022/01/26 05:42:47;;;;;;;44.60;28.20;;;;;;;0.52;100.00;101877.13;5015064;28;20662;-45
2022/01/26 05:45:31;;;;;;;53.33;35.93;;;;;;;0.53;100.00;101878.88;5014854;28;20191;-45
2022/01/26 05:47:56;;;;;;;57.83;36.10;;;;;;;0.51;100.00;101880.47;5005796;28;20219;-45
2022/01/26 05:50:22;;;;;;;51.53;33.37;;;;;;;0.50;100.00;101884.69;5007431;28;20216;-45
2022/01/26 05:52:48;;;;;;;51.67;35.07;;;;;;;0.50;100.00;101879.59;5007937;28;20192;-45
2022/01/26 05:55:13;;;;;;;65.73;43.53;;;;;;;0.52;100.00;101882.22;5002690;28;20208;-46
2022/01/26 05:57:39;;;;;;;71.47;47.17;;;;;;;0.49;100.00;101879.50;5014288;28;20213;-45
2022/01/26 06:00:07;;;;;;;74.07;49.17;;;;;;;0.47;100.00;101868.31;5007195;28;20185;-45
2022/01/26 06:02:33;;;;;;;63.67;43.73;;;;;;;0.45;100.00;101863.16;5000840;28;20215;-45
2022/01/26 06:04:58;;;;;;;63.50;44.07;;;;;;;0.43;100.00;101863.06;5002745;28;20180;-45
2022/01/26 06:07:24;;;;;;;68.37;46.33;;;;;;;0.41;100.00;101867.19;5014999;28;20212;-45
2022/01/26 06:09:49;;;;;;;82.00;59.73;;;;;;;0.39;100.00;101867.88;5010511;28;20223;-45
2022/01/26 06:12:14;;;;;;;68.13;51.10;;;;;;;0.36;100.00;101863.50;5009278;28;20193;-45
2022/01/26 06:14:40;;;;;;;52.40;37.20;;;;;;;0.34;100.00;101859.97;5012065;28;20186;-45
2022/01/26 06:17:05;;;;;;;58.10;40.33;;;;;;;0.35;100.00;101856.66;5009492;28;20208;-48
2022/01/26 06:19:31;;;;;;;50.93;35.60;;;;;;;0.34;100.00;101869.31;5011047;28;20525;-45
2022/01/26 06:21:56;;;;;;;46.63;31.00;;;;;;;0.34;100.00;101874.41;5008269;28;20319;-46
2022/01/26 06:24:21;;;;;;;45.00;28.57;;;;;;;0.36;100.00;101871.13;5011041;28;20191;-46
2022/01/26 06:26:47;;;;;;;44.60;28.23;;;;;;;0.35;100.00;101866.84;5005341;28;20631;-47
2022/01/26 06:29:12;;;;;;;44.43;27.67;;;;;;;0.33;100.00;101867.53;5011330;28;20211;-44
2022/01/26 06:31:41;;;;;;;45.33;26.03;;;;;;;0.30;100.00;101866.56;5018673;28;20255;-44
2022/01/26 06:34:10;;;;;;;41.33;25.80;;;;;;;0.31;100.00;101872.53;5025103;28;20580;-45
2022/01/26 06:36:37;;;;;;;43.40;27.50;;;;;;;0.32;100.00;101860.69;5012943;28;20191;-46
2022/01/26 06:39:04;;;;;;;43.57;27.60;;;;;;;0.33;100.00;101863.31;5014524;28;20200;-46
2022/01/26 06:41:29;;;;;;;44.13;27.90;;;;;;;0.32;100.00;101870.88;5005218;28;20189;-47
2022/01/26 06:44:03;;;;;;;44.03;27.83;;;;;;;0.29;100.00;101867.34;5011339;28;20215;-44
2022/01/26 06:46:45;;;;;;;43.23;26.93;;;;;;;0.28;100.00;101862.19;5013833;28;20184;-45
2022/01/26 06:51:35;;;;;;;37.53;24.30;;;;;;;0.29;100.00;101864.81;4999241;28;20274;-46
2022/01/26 06:54:01;;;;;;;39.63;26.00;;;;;;;0.31;100.00;101864.88;5005976;28;20295;-46
2022/01/26 06:56:26;;;;;;;36.63;24.60;;;;;;;0.33;100.00;101865.00;5006719;28;20189;-48
2022/01/26 06:58:54;;;;;;;35.67;23.67;;;;;;;0.33;100.00;101870.94;5010207;28;20636;-47
2022/01/26 07:01:19;;;;;;;35.77;23.60;;;;;;;0.35;100.00;101876.16;5003993;28;20213;-47
2022/01/26 07:03:46;;;;;;;35.07;22.53;;;;;;;0.36;100.00;101878.78;5007336;28;20641;-47
2022/01/26 07:06:12;;;;;;;36.80;23.87;;;;;;;0.38;100.00;101881.44;5005876;28;20668;-46
2022/01/26 07:08:37;;;;;;;32.30;21.77;;;;;;;0.37;100.00;101893.28;5006172;28;20208;-46
2022/01/26 07:11:03;;;;;;;36.30;24.20;;;;;;;0.39;100.00;101901.00;5002866;28;20207;-46
2022/01/26 07:13:28;;;;;;;38.33;25.17;;;;;;;0.39;100.00;101901.88;5005683;28;20250;-45
2022/01/26 07:21:35;;;;;;;38.97;25.77;;;;;;;0.36;100.00;101898.28;4960546;28;20196;-46
2022/01/26 07:24:00;;;;;;;39.33;24.03;;;;;;;0.31;100.00;101910.72;5011171;28;20245;-45
2022/01/26 07:26:29;;;;;;;38.43;24.83;;;;;;;0.27;100.00;101916.44;5007847;28;20198;-46
2022/01/26 07:29:07;;;;;;;35.47;23.70;;;;;;;0.26;100.00;101920.66;5004510;28;20279;-46
2022/01/26 07:31:36;;;;;;;35.13;23.33;;;;;;;0.27;100.00;101921.53;5009699;28;20241;-46
2022/01/26 07:34:02;;;;;;;58.47;40.13;;;;;;;0.30;100.00;101921.72;5016092;28;20234;-46
2022/01/26 07:36:27;;;;;;;44.60;31.00;;;;;;;0.32;100.00;101926.91;5014865;28;20195;-46
2022/01/26 07:38:55;;;;;;;42.07;29.50;;;;;;;0.29;100.00;101928.47;5009213;28;20181;-46
2022/01/26 07:41:21;;;;;;;39.97;26.40;;;;;;;0.29;100.00;101915.75;5002593;28;20192;-46
2022/01/26 07:43:47;;;;;;;50.83;33.77;;;;;;;0.27;100.00;101927.50;5006907;28;20188;-46
2022/01/26 07:46:14;;;;;;;43.47;30.50;;;;;;;0.25;100.00;101931.63;5012658;28;20198;-46
2022/01/26 07:48:39;;;;;;;45.77;31.40;;;;;;;0.25;100.00;101936.72;5010761;28;20219;-46
2022/01/26 07:51:05;;;;;;;46.30;31.87;;;;;;;0.26;100.00;101935.94;5011776;28;20283;-46
2022/01/26 07:53:32;;;;;;;42.70;31.37;;;;;;;0.28;100.00;101952.19;5015156;28;20546;-46
2022/01/26 07:55:57;;;;;;;55.93;41.23;;;;;;;0.29;100.00;101956.50;5013972;28;20176;-45
2022/01/26 07:58:24;;;;;;;43.57;31.10;;;;;;;0.32;100.00;101958.31;5008499;28;20208;-46
2022/01/26 08:00:49;;;;;;;38.07;29.27;;;;;;;0.36;100.00;101959.41;5004186;28;20184;-46
2022/01/26 08:03:15;;;;;;;35.23;26.53;;;;;;;0.36;100.00;101947.53;5008220;28;20567;-46
2022/01/26 08:05:41;;;;;;;30.27;22.83;;;;;;;0.39;100.00;101951.94;5012453;28;20184;-46
2022/01/26 08:08:07;;;;;;;28.23;20.63;;;;;;;0.40;100.00;101958.78;5009436;28;20215;-46
2022/01/26 08:10:32;;;;;;;28.37;19.93;;;;;;;0.40;100.00;101961.34;5009630;28;20207;-46
2022/01/26 08:12:59;;;;;;;25.63;19.23;;;;;;;0.39;100.00;101952.81;5007478;28;20305;-46
2022/01/26 08:15:25;;;;;;;23.60;17.27;;;;;;;0.40;100.00;101959.69;5010729;28;20262;-46
2022/01/26 08:17:51;;;;;;;25.73;19.97;;;;;;;0.42;100.00;101957.22;5008616;28;20234;-46
2022/01/26 08:20:17;;;;;;;22.27;17.13;;;;;;;0.45;100.00;101968.44;5003362;28;20625;-45
2022/01/26 08:22:42;;;;;;;24.37;17.13;;;;;;;0.47;100.00;101967.66;4999494;28;20202;-46
2022/01/26 08:25:08;;;;;;;23.17;16.63;;;;;;;0.50;100.00;101958.56;5006247;28;20183;-45
2022/01/26 08:27:40;;;;;;;22.23;16.27;;;;;;;0.52;100.00;101951.91;5011144;28;20208;-45
2022/01/26 08:30:10;;;;;;;23.17;16.07;;;;;;;0.56;100.00;101956.34;5008541;28;20208;-45
2022/01/26 08:32:35;;;;;;;27.40;18.20;;;;;;;0.58;100.00;101964.97;5008321;28;20662;-45
2022/01/26 08:35:01;;;;;;;23.70;16.77;;;;;;;0.59;100.00;101965.88;5009182;28;20277;-46
2022/01/26 08:37:26;;;;;;;25.20;17.27;;;;;;;0.59;100.00;101970.97;5004527;28;20576;-46
2022/01/26 08:39:51;;;;;;;20.77;14.80;;;;;;;0.60;100.00;101963.41;5003157;28;20271;-46
2022/01/26 08:42:17;;;;;;;22.57;15.90;;;;;;;0.62;100.00;101965.16;5003900;28;20202;-46
2022/01/26 08:44:43;;;;;;;21.30;15.57;;;;;;;0.66;100.00;101967.13;5006705;28;20188;-45
2022/01/26 08:47:08;;;;;;;21.13;15.57;;;;;;;0.70;100.00;101963.94;5012745;28;20219;-47
2022/01/26 08:49:34;;;;;;;21.50;14.77;;;;;;;0.71;100.00;101968.25;5010459;28;20272;-46
2022/01/26 08:52:00;;;;;;;24.93;16.37;;;;;;;0.74;100.00;101978.63;5013807;28;20188;-46
2022/01/26 08:54:26;;;;;;;27.10;16.50;;;;;;;0.75;100.00;101988.91;5014427;28;20182;-47
2022/01/26 08:56:53;;;;;;;24.27;17.03;;;;;;;0.76;100.00;101979.59;5021375;28;20695;-47
2022/01/26 08:59:21;;;;;;;22.87;15.83;;;;;;;0.78;100.00;101989.88;5009483;28;20593;-46
2022/01/26 09:01:47;;;;;;;25.47;16.93;;;;;;;0.79;100.00;102007.81;5025883;28;20218;-46
2022/01/26 09:04:13;;;;;;;25.60;17.17;;;;;;;0.79;100.00;102000.16;5025158;28;20196;-46
2022/01/26 09:07:00;;;;;;;23.67;16.50;;;;;;;0.81;100.00;101987.50;5023345;28;20172;-46
2022/01/26 09:09:30;;;;;;;22.57;15.40;;;;;;;0.84;100.00;101982.59;5010418;28;20211;-46
2022/01/26 09:11:57;;;;;;;23.97;16.50;;;;;;;0.87;100.00;101991.28;5013598;28;20556;-47
2022/01/26 09:14:26;;;;;;;22.30;15.83;;;;;;;0.89;100.00;101981.19;5017492;28;20195;-46
2022/01/26 09:16:53;;;;;;;24.63;16.87;;;;;;;0.91;100.00;101988.13;5013469;28;20204;-45
2022/01/26 09:19:31;;;;;;;25.97;18.40;;;;;;;0.93;100.00;101977.16;5012851;28;20280;-46
2022/01/26 09:21:58;;;;;;;24.47;16.70;;;;;;;0.94;100.00;101982.31;5008982;28;20532;-46
2022/01/26 09:24:26;;;;;;;26.77;17.60;;;;;;;0.98;100.00;101976.63;5015319;28;20196;-45
2022/01/26 09:26:52;;;;;;;25.17;17.07;;;;;;;1.03;100.00;101971.78;5017104;28;20203;-46
2022/01/26 09:29:17;;;;;;;24.80;17.73;;;;;;;1.03;100.00;101970.13;5010946;28;20549;-47
2022/01/26 09:31:44;;;;;;;28.43;19.30;;;;;;;1.06;100.00;101949.88;5010883;28;20258;-46
2022/01/26 09:34:09;;;;;;;27.07;18.20;;;;;;;1.10;100.00;101945.84;5018193;28;20198;-47
2022/01/26 09:36:35;;;;;;;31.03;20.50;;;;;;;1.10;100.00;101943.31;5011237;28;20193;-47
2022/01/26 09:39:00;;;;;;;32.73;20.77;;;;;;;1.08;100.00;101946.53;5020234;28;20538;-47
2022/01/26 09:41:25;;;;;;;31.67;20.93;;;;;;;1.04;100.00;101950.59;5013138;28;20199;-46
2022/01/26 09:43:52;;;;;;;31.00;19.40;;;;;;;1.02;100.00;101950.50;5010647;28;20185;-47
2022/01/26 09:46:17;;;;;;;27.83;19.77;;;;;;;1.03;100.00;101966.69;4995558;28;20182;-47
2022/01/26 09:48:44;;;;;;;29.60;19.40;;;;;;;1.03;100.00;101957.38;5006803;28;20208;-47
2022/01/26 09:51:13;;;;;;;28.60;18.60;;;;;;;1.07;100.00;101938.03;4999334;28;20208;-47
2022/01/26 09:53:38;;;;;;;26.90;18.13;;;;;;;1.09;100.00;101928.78;5012178;28;20219;-46
2022/01/26 09:56:04;;;;;;;29.83;18.97;;;;;;;1.13;100.00;101937.47;5012688;28;20695;-46
2022/01/26 09:58:30;;;;;;;29.17;19.47;;;;;;;1.14;100.00;101947.75;5016610;28;20203;-46
2022/01/26 10:01:04;;;;;;;26.67;17.63;;;;;;;1.16;100.00;101941.06;5017496;28;20180;-46
2022/01/26 10:03:34;;;;;;;27.13;17.03;;;;;;;1.18;100.00;101924.19;5010058;28;20263;-46
2022/01/26 10:06:02;;;;;;;25.20;16.97;;;;;;;1.19;100.00;101927.63;5011127;28;20185;-46
2022/01/26 10:17:25;;;;;;;20.47;14.47;;;;;;;1.33;100.00;101933.50;5016437;28;20222;-46
2022/01/26 10:19:58;;;;;;;22.83;15.17;;;;;;;1.35;100.00;101927.69;5004227;28;20192;-46
2022/01/26 10:22:34;;;;;;;20.43;14.60;;;;;;;1.37;100.00;101920.97;5014368;28;20188;-46
2022/01/26 10:25:11;;;;;;;20.57;15.33;;;;;;;1.36;100.00;101914.13;5016730;28;20656;-46
2022/01/26 10:27:42;;;;;;;20.57;14.43;;;;;;;1.36;100.00;101921.78;5020826;28;20683;-46
2022/01/26 10:30:13;;;;;;;20.63;14.27;;;;;;;1.36;100.00;101926.88;5004771;28;20224;-46
2022/01/26 10:32:41;;;;;;;21.87;15.27;;;;;;;1.38;100.00;101942.28;5002926;28;20271;-46
2022/01/26 10:35:07;;;;;;;24.63;16.87;;;;;;;1.34;100.00;101966.75;5004837;28;20251;-46
2022/01/26 10:37:33;;;;;;;22.27;15.77;;;;;;;1.34;100.00;101959.09;5017227;28;20262;-46
2022/01/26 10:40:14;;;;;;;21.30;16.03;;;;;;;1.36;100.00;101971.94;5010806;28;20582;-46
2022/01/26 10:42:39;;;;;;;21.63;15.83;;;;;;;1.36;100.00;101974.47;5016034;28;20183;-46
2022/01/26 10:45:13;;;;;;;23.63;15.93;;;;;;;1.36;100.00;101985.53;5018268;28;20695;-46
2022/01/26 10:47:45;;;;;;;20.90;14.43;;;;;;;1.35;100.00;101986.38;5012918;28;20215;-48
2022/01/26 10:53:12;;;;;;;20.23;14.37;;;;;;;1.40;100.00;101976.41;5004518;28;20188;-48
2022/01/26 10:55:39;;;;;;;20.73;14.27;;;;;;;1.41;100.00;101988.38;5011705;28;20196;-47
2022/01/26 10:58:07;;;;;;;20.07;14.93;;;;;;;1.43;100.00;101997.00;5010214;28;20208;-48
2022/01/26 11:00:37;;;;;;;19.17;13.77;;;;;;;1.45;100.00;101981.78;5010610;28;20199;-47
2022/01/26 11:03:05;;;;;;;21.23;14.23;;;;;;;1.46;100.00;101986.09;5004759;28;20609;-47
2022/01/26 11:05:30;;;;;;;22.20;14.07;;;;;;;1.47;100.00;101993.81;5008553;28;20184;-47
2022/01/26 11:07:58;;;;;;;21.67;14.93;;;;;;;1.51;100.00;101992.34;5011016;28;20577;-47
2022/01/26 11:10:32;;;;;;;17.67;13.37;;;;;;;1.54;100.00;101973.75;5004400;28;20220;-47
2022/01/26 11:12:57;;;;;;;19.93;14.00;;;;;;;1.54;100.00;101984.81;5013927;28;20183;-47
2022/01/26 11:15:23;;;;;;;17.70;12.63;;;;;;;1.57;100.00;101996.91;5014479;28;20203;-47
2022/01/26 11:17:49;;;;;;;18.30;13.90;;;;;;;1.59;100.00;101996.19;5006956;28;20278;-47
2022/01/26 11:20:18;;;;;;;18.23;13.47;;;;;;;1.62;100.00;101982.69;5009704;28;20175;-47
2022/01/26 11:22:52;;;;;;;17.43;12.10;;;;;;;1.62;100.00;101981.03;5020378;28;20183;-47
2022/01/26 11:25:19;;;;;;;18.23;13.63;;;;;;;1.62;100.00;101962.28;5003521;28;20562;-47
2022/01/26 11:27:44;;;;;;;18.93;14.40;;;;;;;1.61;100.00;101969.06;5013406;28;20200;-46
2022/01/26 11:30:26;;;;;;;18.10;13.57;;;;;;;1.61;100.00;101963.97;5011118;28;20212;-47
2022/01/26 11:33:01;;;;;;;18.00;13.13;;;;;;;1.60;100.00;101959.66;5013965;28;20341;-47
2022/01/26 11:35:34;;;;;;;20.77;14.23;;;;;;;1.60;100.00;101959.66;5012986;28;20611;-47
2022/01/26 11:46:54;;;;;;;24.43;16.80;;;;;;;1.59;100.00;101952.78;5009031;28;20292;-47
2022/01/26 11:49:25;;;;;;;22.20;16.03;;;;;;;1.56;100.00;101949.19;5003800;28;20211;-47
2022/01/26 11:51:53;;;;;;;22.30;15.70;;;;;;;1.53;100.00;101960.09;5007126;28;20584;-46
2022/01/26 11:54:28;;;;;;;21.50;16.03;;;;;;;1.54;100.00;101958.44;5007100;28;20199;-47
2022/01/26 11:57:06;;;;;;;25.30;16.97;;;;;;;1.54;100.00;101954.19;4997207;28;20595;-44
2022/01/26 11:59:34;;;;;;;24.87;17.87;;;;;;;1.56;100.00;101956.84;5014047;28;20211;-47
2022/01/26 12:02:05;;;;;;;24.70;18.10;;;;;;;1.58;100.00;101963.78;5013418;28;20694;-46
2022/01/26 12:04:33;;;;;;;27.63;19.57;;;;;;;1.59;100.00;101957.91;5010462;28;20188;-46
2022/01/26 12:07:45;;;;;;;24.03;18.53;;;;;;;1.62;100.00;101959.72;5009306;28;20230;-45
2022/01/26 12:10:04;;;;;;;26.20;19.00;;;;;;;1.59;100.00;101951.94;4994261;28;20712;-45
2022/01/26 12:12:30;;;;;;;25.30;19.17;;;;;;;1.58;100.00;101960.38;5007537;28;20255;-45
2022/01/26 12:14:58;;;;;;;24.93;19.57;;;;;;;1.56;100.00;101952.63;4998628;28;20590;-47
2022/01/26 12:17:30;;;;;;;26.10;18.00;;;;;;;1.56;100.00;101955.16;5005882;28;20215;-45
2022/01/26 12:34:45;;;;;;;32.23;22.10;;;;;;;1.74;100.00;101926.34;5005469;28;20194;-46
2022/01/26 12:37:37;;;;;;;34.80;24.73;;;;;;;1.67;100.00;101930.25;5022524;28;20211;-47
2022/01/26 12:45:24;;;;;;;25.27;18.97;;;;;;;1.54;100.00;101928.69;5008491;28;20183;-46
2022/01/26 12:47:55;;;;;;;24.73;18.43;;;;;;;1.56;100.00;101936.44;5017071;28;20220;-46
2022/01/26 12:50:22;;;;;;;23.87;17.23;;;;;;;1.58;100.00;101945.06;5008404;28;20299;-46
2022/01/26 12:52:49;;;;;;;24.00;17.57;;;;;;;1.59;100.00;101951.94;5009601;28;20184;-46
2022/01/26 12:55:23;;;;;;;22.80;16.30;;;;;;;1.62;100.00;101944.41;5016328;28;20222;-46
2022/01/26 12:57:49;;;;;;;22.87;16.57;;;;;;;1.61;100.00;101941.00;5008828;28;20282;-46
2022/01/26 13:00:16;;;;;;;25.00;17.77;;;;;;;1.62;100.00;101939.31;5007247;28;20544;-46
2022/01/26 13:02:41;;;;;;;30.30;20.93;;;;;;;1.58;100.00;101939.97;5008251;28;20189;-46
2022/01/26 13:05:07;;;;;;;27.43;19.03;;;;;;;1.52;100.00;101943.03;5004601;28;20200;-46
2022/01/26 13:07:32;;;;;;;26.50;18.60;;;;;;;1.48;100.00;101936.88;5012707;28;20211;-46
2022/01/26 13:09:58;;;;;;;25.37;18.00;;;;;;;1.45;100.00;101941.81;5007885;28;20276;-47
2022/01/26 13:12:31;;;;;;;25.43;18.57;;;;;;;1.44;100.00;101944.28;5009898;28;20196;-47
2022/01/26 13:15:19;;;;;;;25.70;18.53;;;;;;;1.44;100.00;101944.28;5011018;28;20236;-46
2022/01/26 13:17:54;;;;;;;24.37;18.23;;;;;;;1.43;100.00;101943.44;5011797;28;20204;-47
2022/01/26 13:20:54;;;;;;;22.77;16.57;;;;;;;1.43;100.00;101939.97;5003965;28;20714;-46
2022/01/26 13:26:52;;;;;;;25.77;18.27;;;;;;;1.38;100.00;101952.50;5012395;28;20188;-47
2022/01/26 13:29:32;;;;;;;22.50;16.13;;;;;;;1.36;100.00;101954.94;5014004;28;20242;-46
2022/01/26 13:32:31;;;;;;;25.10;17.80;;;;;;;1.39;100.00;101949.16;5018198;28;20215;-47
2022/01/26 13:43:50;;;;;;;26.23;18.13;;;;;;;1.38;100.00;101939.72;4965194;28;20190;-47
2022/01/26 13:51:47;;;;;;;21.93;16.53;;;;;;;1.36;100.00;101943.88;5013904;28;20219;-46
2022/01/26 13:54:44;;;;;;;21.30;15.00;;;;;;;1.36;100.00;101939.63;5022303;28;20196;-46
2022/01/26 13:59:55;;;;;;;25.87;18.37;;;;;;;1.35;100.00;101950.66;4957783;28;20190;-46
2022/01/26 14:02:21;;;;;;;23.80;17.73;;;;;;;1.32;100.00;101957.25;5009042;28;20562;-46